sensor_id;sensor_type;location;lat;lon;timestamp;pressure;altitude;pressure_sealevel;temperature;humidity
80137;BME280;76989;55.950;37.484;2024-03-23T00:56:06;98533.81;;;4.22;67.49
80137;BME280;76989;55.950;37.484;2024-03-23T00:58:33;98536.53;;;4.29;68.84
80137;BME280;76989;55.950;37.484;2024-03-23T01:01:00;98504.06;;;4.04;68.07
80137;BME280;76989;55.950;37.484;2024-03-23T01:03:30;98531.78;;;4.24;68.80
80137;BME280;76989;55.950;37.484;2024-03-23T01:06:02;98527.22;;;4.12;69.41
80137;BME280;76989;55.950;37.484;2024-03-23T01:08:30;98506.38;;;4.07;69.63
80137;BME280;76989;55.950;37.484;2024-03-23T01:10:58;98482.41;;;4.06;69.00
80137;BME280;76989;55.950;37.484;2024-03-23T01:13:24;98485.28;;;3.97;69.86
80137;BME280;76989;55.950;37.484;2024-03-23T01:15:52;98525.16;;;4.27;69.76
80137;BME280;76989;55.950;37.484;2024-03-23T01:18:19;98492.53;;;4.17;69.69
80137;BME280;76989;55.950;37.484;2024-03-23T01:20:46;98506.16;;;4.22;70.32
80137;BME280;76989;55.950;37.484;2024-03-23T01:23:13;98507.59;;;4.18;70.40
80137;BME280;76989;55.950;37.484;2024-03-23T01:25:40;98505.13;;;4.23;70.49
80137;BME280;76989;55.950;37.484;2024-03-23T01:28:06;98471.47;;;4.00;70.72
80137;BME280;76989;55.950;37.484;2024-03-23T01:30:33;98480.53;;;4.13;70.46
80137;BME280;76989;55.950;37.484;2024-03-23T01:33:01;98477.66;;;4.21;71.08
80137;BME280;76989;55.950;37.484;2024-03-23T01:35:29;98470.84;;;4.12;70.05
80137;BME280;76989;55.950;37.484;2024-03-23T01:37:55;98480.56;;;4.19;70.38
80137;BME280;76989;55.950;37.484;2024-03-23T01:40:21;98440.09;;;4.01;70.91
80137;BME280;76989;55.950;37.484;2024-03-23T01:42:57;98474.16;;;4.20;70.84
80137;BME280;76989;55.950;37.484;2024-03-23T01:45:24;98469.63;;;4.21;71.21
80137;BME280;76989;55.950;37.484;2024-03-23T01:47:57;98449.78;;;4.15;70.50
80137;BME280;76989;55.950;37.484;2024-03-23T01:50:27;98450.63;;;4.16;70.76
80137;BME280;76989;55.950;37.484;2024-03-23T01:52:53;98419.03;;;3.98;71.32
80137;BME280;76989;55.950;37.484;2024-03-23T01:55:20;98457.63;;;4.30;71.77
80137;BME280;76989;55.950;37.484;2024-03-23T01:57:46;98440.28;;;4.19;71.62
80137;BME280;76989;55.950;37.484;2024-03-23T02:00:13;98441.09;;;4.26;71.45
80137;BME280;76989;55.950;37.484;2024-03-23T02:02:46;98421.09;;;4.16;71.46
80137;BME280;76989;55.950;37.484;2024-03-23T02:05:14;98392.38;;;4.10;71.18
80137;BME280;76989;55.950;37.484;2024-03-23T02:07:41;98437.16;;;4.35;71.79
80137;BME280;76989;55.950;37.484;2024-03-23T02:10:07;98422.72;;;4.30;71.43
80137;BME280;76989;55.950;37.484;2024-03-23T02:12:36;98420.44;;;4.33;72.20
80137;BME280;76989;55.950;37.484;2024-03-23T02:15:03;98427.66;;;4.39;72.13
80137;BME280;76989;55.950;37.484;2024-03-23T02:17:34;98429.31;;;4.40;72.03
80137;BME280;76989;55.950;37.484;2024-03-23T02:20:04;98403.50;;;4.39;71.87
80137;BME280;76989;55.950;37.484;2024-03-23T02:22:39;98411.56;;;4.39;72.37
80137;BME280;76989;55.950;37.484;2024-03-23T02:25:06;98351.53;;;4.08;72.32
80137;BME280;76989;55.950;37.484;2024-03-23T02:27:33;98409.06;;;4.44;72.53
80137;BME280;76989;55.950;37.484;2024-03-23T02:30:00;98402.06;;;4.30;73.13
80137;BME280;76989;55.950;37.484;2024-03-23T02:32:33;98401.03;;;4.44;73.10
80137;BME280;76989;55.950;37.484;2024-03-23T02:34:59;98390.47;;;4.43;73.12
80137;BME280;76989;55.950;37.484;2024-03-23T02:37:25;98383.03;;;4.38;73.50
80137;BME280;76989;55.950;37.484;2024-03-23T02:39:51;98346.75;;;4.16;72.81
80137;BME280;76989;55.950;37.484;2024-03-23T02:42:18;98362.59;;;4.31;72.68
80137;BME280;76989;55.950;37.484;2024-03-23T02:44:44;98361.75;;;4.37;73.33
80137;BME280;76989;55.950;37.484;2024-03-23T02:47:12;98321.97;;;4.21;73.66
80137;BME280;76989;55.950;37.484;2024-03-23T02:49:39;98358.06;;;4.38;73.49
80137;BME280;76989;55.950;37.484;2024-03-23T02:52:05;98329.97;;;4.27;73.17
80137;BME280;76989;55.950;37.484;2024-03-23T02:54:31;98335.75;;;4.37;73.52
80137;BME280;76989;55.950;37.484;2024-03-23T02:56:57;98314.25;;;4.31;73.45
80137;BME280;76989;55.950;37.484;2024-03-23T02:59:23;98334.28;;;4.41;73.92
80137;BME280;76989;55.950;37.484;2024-03-23T03:01:49;98289.31;;;4.24;73.21
80137;BME280;76989;55.950;37.484;2024-03-23T03:04:15;98314.47;;;4.36;73.93
80137;BME280;76989;55.950;37.484;2024-03-23T03:06:41;98330.13;;;4.52;74.09
80137;BME280;76989;55.950;37.484;2024-03-23T03:09:08;98304.38;;;4.25;73.89
80137;BME280;76989;55.950;37.484;2024-03-23T03:11:36;98314.66;;;4.41;73.45
80137;BME280;76989;55.950;37.484;2024-03-23T03:14:02;98300.63;;;4.32;73.67
80137;BME280;76989;55.950;37.484;2024-03-23T03:16:28;98322.50;;;4.49;74.59
80137;BME280;76989;55.950;37.484;2024-03-23T03:18:55;98300.19;;;4.35;74.10
80137;BME280;76989;55.950;37.484;2024-03-23T03:21:21;98287.59;;;4.36;74.72
80137;BME280;76989;55.950;37.484;2024-03-23T03:23:47;98276.66;;;4.31;74.51
80137;BME280;76989;55.950;37.484;2024-03-23T03:26:17;98288.44;;;4.36;74.53
80137;BME280;76989;55.950;37.484;2024-03-23T03:28:43;98270.47;;;4.37;74.55
80137;BME280;76989;55.950;37.484;2024-03-23T03:31:18;98280.50;;;4.55;74.06
80137;BME280;76989;55.950;37.484;2024-03-23T03:33:44;98287.28;;;4.64;74.16
80137;BME280;76989;55.950;37.484;2024-03-23T03:36:11;98282.59;;;4.53;74.13
80137;BME280;76989;55.950;37.484;2024-03-23T03:38:37;98282.16;;;4.62;74.01
80137;BME280;76989;55.950;37.484;2024-03-23T03:41:06;98263.59;;;4.47;74.64
80137;BME280;76989;55.950;37.484;2024-03-23T03:43:32;98272.25;;;4.56;75.15
80137;BME280;76989;55.950;37.484;2024-03-23T03:45:59;98248.47;;;4.60;74.35
80137;BME280;76989;55.950;37.484;2024-03-23T03:48:26;98233.44;;;4.52;74.01
80137;BME280;76989;55.950;37.484;2024-03-23T03:50:54;98226.66;;;4.43;75.24
80137;BME280;76989;55.950;37.484;2024-03-23T03:53:21;98231.91;;;4.18;75.49
80137;BME280;76989;55.950;37.484;2024-03-23T03:55:47;98244.22;;;4.39;75.26
80137;BME280;76989;55.950;37.484;2024-03-23T03:58:13;98261.81;;;4.28;76.05
80137;BME280;76989;55.950;37.484;2024-03-23T04:00:40;98242.84;;;4.30;75.59
80137;BME280;76989;55.950;37.484;2024-03-23T04:03:07;98233.72;;;4.31;76.45
80137;BME280;76989;55.950;37.484;2024-03-23T04:05:33;98247.31;;;4.36;75.85
80137;BME280;76989;55.950;37.484;2024-03-23T04:07:59;98229.63;;;4.22;76.28
80137;BME280;76989;55.950;37.484;2024-03-23T04:10:26;98210.47;;;4.12;76.36
80137;BME280;76989;55.950;37.484;2024-03-23T04:12:52;98226.53;;;4.25;76.45
80137;BME280;76989;55.950;37.484;2024-03-23T04:15:20;98231.63;;;4.39;76.55
80137;BME280;76989;55.950;37.484;2024-03-23T04:17:47;98238.81;;;4.45;75.99
80137;BME280;76989;55.950;37.484;2024-03-23T04:20:16;98170.81;;;4.14;75.89
80137;BME280;76989;55.950;37.484;2024-03-23T04:22:43;98204.97;;;4.44;75.65
80137;BME280;76989;55.950;37.484;2024-03-23T04:25:09;98223.31;;;4.47;75.75
80137;BME280;76989;55.950;37.484;2024-03-23T04:27:37;98171.63;;;4.21;75.94
80137;BME280;76989;55.950;37.484;2024-03-23T04:30:04;98203.94;;;4.39;75.94
80137;BME280;76989;55.950;37.484;2024-03-23T04:32:31;98199.78;;;4.43;76.43
80137;BME280;76989;55.950;37.484;2024-03-23T04:34:58;98172.22;;;4.23;76.53
80137;BME280;76989;55.950;37.484;2024-03-23T04:37:25;98201.00;;;4.54;75.78
80137;BME280;76989;55.950;37.484;2024-03-23T04:39:51;98169.28;;;4.31;75.59
80137;BME280;76989;55.950;37.484;2024-03-23T04:42:19;98182.03;;;4.42;76.83
80137;BME280;76989;55.950;37.484;2024-03-23T04:44:45;98200.16;;;4.53;77.05
80137;BME280;76989;55.950;37.484;2024-03-23T04:47:11;98160.00;;;4.27;76.22
80137;BME280;76989;55.950;37.484;2024-03-23T04:49:38;98174.81;;;4.42;76.67
80137;BME280;76989;55.950;37.484;2024-03-23T04:52:05;98161.56;;;4.41;76.98
80137;BME280;76989;55.950;37.484;2024-03-23T04:54:31;98134.22;;;4.26;76.56
80137;BME280;76989;55.950;37.484;2024-03-23T04:57:05;98178.22;;;4.56;76.44
80137;BME280;76989;55.950;37.484;2024-03-23T04:59:32;98176.31;;;4.63;76.59
80137;BME280;76989;55.950;37.484;2024-03-23T05:01:59;98149.81;;;4.42;77.08
80137;BME280;76989;55.950;37.484;2024-03-23T05:04:27;98172.66;;;4.58;76.83
80137;BME280;76989;55.950;37.484;2024-03-23T05:06:53;98175.09;;;4.59;76.38
80137;BME280;76989;55.950;37.484;2024-03-23T05:09:22;98127.28;;;4.43;76.91
80137;BME280;76989;55.950;37.484;2024-03-23T05:11:48;98175.06;;;4.66;76.95
80137;BME280;76989;55.950;37.484;2024-03-23T05:14:16;98172.19;;;4.67;77.16
80137;BME280;76989;55.950;37.484;2024-03-23T05:16:44;98127.22;;;4.50;76.82
80137;BME280;76989;55.950;37.484;2024-03-23T05:19:12;98135.53;;;4.48;77.36
80137;BME280;76989;55.950;37.484;2024-03-23T05:21:38;98146.03;;;4.50;77.37
80137;BME280;76989;55.950;37.484;2024-03-23T05:24:05;98132.78;;;4.55;77.05
80137;BME280;76989;55.950;37.484;2024-03-23T05:26:31;98147.59;;;4.64;77.27
80137;BME280;76989;55.950;37.484;2024-03-23T05:29:00;98092.25;;;4.31;77.33
80137;BME280;76989;55.950;37.484;2024-03-23T05:31:30;98121.81;;;4.56;77.57
80137;BME280;76989;55.950;37.484;2024-03-23T05:33:58;98112.75;;;4.51;77.73
80137;BME280;76989;55.950;37.484;2024-03-23T05:36:24;98096.88;;;4.49;77.88
80137;BME280;76989;55.950;37.484;2024-03-23T05:38:50;98123.38;;;4.70;77.35
80137;BME280;76989;55.950;37.484;2024-03-23T05:41:20;98099.47;;;4.62;77.79
80137;BME280;76989;55.950;37.484;2024-03-23T05:43:48;98106.09;;;4.60;77.71
80137;BME280;76989;55.950;37.484;2024-03-23T05:46:16;98125.03;;;4.71;77.68
80137;BME280;76989;55.950;37.484;2024-03-23T05:48:44;98083.66;;;4.47;78.13
80137;BME280;76989;55.950;37.484;2024-03-23T05:51:10;98106.47;;;4.63;77.79
80137;BME280;76989;55.950;37.484;2024-03-23T05:53:39;98083.84;;;4.53;78.66
80137;BME280;76989;55.950;37.484;2024-03-23T05:56:05;98063.22;;;4.46;78.23
80137;BME280;76989;55.950;37.484;2024-03-23T05:58:34;98075.00;;;4.45;77.89
80137;BME280;76989;55.950;37.484;2024-03-23T06:01:01;98094.03;;;4.69;78.06
80137;BME280;76989;55.950;37.484;2024-03-23T06:03:29;98068.38;;;4.48;77.69
80137;BME280;76989;55.950;37.484;2024-03-23T06:05:56;98085.97;;;4.69;77.62
80137;BME280;76989;55.950;37.484;2024-03-23T06:08:23;98052.81;;;4.57;77.88
80137;BME280;76989;55.950;37.484;2024-03-23T06:10:51;98049.97;;;4.52;78.12
80137;BME280;76989;55.950;37.484;2024-03-23T06:13:18;98053.47;;;4.52;78.21
80137;BME280;76989;55.950;37.484;2024-03-23T06:15:45;98065.13;;;4.64;78.34
80137;BME280;76989;55.950;37.484;2024-03-23T06:18:13;98078.91;;;4.74;78.22
80137;BME280;76989;55.950;37.484;2024-03-23T06:20:39;98057.69;;;4.66;77.95
80137;BME280;76989;55.950;37.484;2024-03-23T06:23:05;98048.59;;;4.67;77.52
80137;BME280;76989;55.950;37.484;2024-03-23T06:25:34;98053.97;;;4.67;77.75
80137;BME280;76989;55.950;37.484;2024-03-23T06:28:02;98023.75;;;4.47;77.12
80137;BME280;76989;55.950;37.484;2024-03-23T06:30:29;98039.75;;;4.60;77.46
80137;BME280;76989;55.950;37.484;2024-03-23T06:32:55;98046.69;;;4.68;77.41
80137;BME280;76989;55.950;37.484;2024-03-23T06:35:21;98075.88;;;4.89;77.41
80137;BME280;76989;55.950;37.484;2024-03-23T06:37:47;98047.53;;;4.68;77.29
80137;BME280;76989;55.950;37.484;2024-03-23T06:40:16;98046.94;;;4.66;77.34
80137;BME280;76989;55.950;37.484;2024-03-23T06:42:46;98066.38;;;4.86;77.95
80137;BME280;76989;55.950;37.484;2024-03-23T06:45:12;98034.56;;;4.65;77.90
80137;BME280;76989;55.950;37.484;2024-03-23T06:47:39;98042.31;;;4.73;77.94
80137;BME280;76989;55.950;37.484;2024-03-23T06:50:06;98054.00;;;4.85;77.18
80137;BME280;76989;55.950;37.484;2024-03-23T06:52:32;98050.72;;;4.83;77.52
80137;BME280;76989;55.950;37.484;2024-03-23T06:54:59;98018.75;;;4.75;77.10
80137;BME280;76989;55.950;37.484;2024-03-23T06:57:26;98018.00;;;4.86;76.91
80137;BME280;76989;55.950;37.484;2024-03-23T06:59:52;98021.47;;;4.94;77.68
80137;BME280;76989;55.950;37.484;2024-03-23T07:02:20;98040.97;;;5.07;77.18
80137;BME280;76989;55.950;37.484;2024-03-23T07:04:47;98024.38;;;4.92;76.64
80137;BME280;76989;55.950;37.484;2024-03-23T07:07:13;98050.06;;;5.06;77.62
80137;BME280;76989;55.950;37.484;2024-03-23T07:09:40;98045.06;;;5.10;77.31
80137;BME280;76989;55.950;37.484;2024-03-23T07:12:08;98005.03;;;4.83;76.92
80137;BME280;76989;55.950;37.484;2024-03-23T07:14:34;98029.22;;;5.02;77.25
80137;BME280;76989;55.950;37.484;2024-03-23T07:17:00;98003.38;;;4.82;77.25
80137;BME280;76989;55.950;37.484;2024-03-23T07:19:26;98047.69;;;5.16;77.29
80137;BME280;76989;55.950;37.484;2024-03-23T07:21:55;98022.81;;;5.03;77.22
80137;BME280;76989;55.950;37.484;2024-03-23T07:24:21;98027.22;;;4.97;77.59
80137;BME280;76989;55.950;37.484;2024-03-23T07:26:48;98004.72;;;4.91;77.29
80137;BME280;76989;55.950;37.484;2024-03-23T07:29:14;98009.97;;;5.05;77.55
80137;BME280;76989;55.950;37.484;2024-03-23T07:31:41;98016.69;;;5.14;77.18
80137;BME280;76989;55.950;37.484;2024-03-23T07:34:07;98002.72;;;5.05;77.00
80137;BME280;76989;55.950;37.484;2024-03-23T07:36:33;98014.59;;;5.16;76.71
80137;BME280;76989;55.950;37.484;2024-03-23T07:39:00;98020.72;;;5.23;77.02
80137;BME280;76989;55.950;37.484;2024-03-23T07:41:26;98009.97;;;5.23;76.80
80137;BME280;76989;55.950;37.484;2024-03-23T07:43:53;97965.34;;;5.04;76.50
80137;BME280;76989;55.950;37.484;2024-03-23T07:46:21;98001.47;;;5.26;76.73
80137;BME280;76989;55.950;37.484;2024-03-23T07:48:48;98017.13;;;5.29;76.68
80137;BME280;76989;55.950;37.484;2024-03-23T07:51:21;97978.47;;;5.12;77.00
80137;BME280;76989;55.950;37.484;2024-03-23T07:53:47;97995.25;;;5.25;77.22
80137;BME280;76989;55.950;37.484;2024-03-23T07:56:21;98003.31;;;5.25;76.65
80137;BME280;76989;55.950;37.484;2024-03-23T07:58:51;97986.97;;;5.27;76.26
80137;BME280;76989;55.950;37.484;2024-03-23T08:01:17;98013.25;;;5.43;77.02
80137;BME280;76989;55.950;37.484;2024-03-23T08:03:46;97939.13;;;4.99;76.47
80137;BME280;76989;55.950;37.484;2024-03-23T08:06:16;97986.66;;;5.35;76.73
80137;BME280;76989;55.950;37.484;2024-03-23T08:08:45;97986.28;;;5.50;76.25
80137;BME280;76989;55.950;37.484;2024-03-23T08:11:12;97988.22;;;5.43;75.59
80137;BME280;76989;55.950;37.484;2024-03-23T08:13:41;97932.41;;;5.08;76.21
80137;BME280;76989;55.950;37.484;2024-03-23T08:16:07;97995.91;;;5.57;76.85
80137;BME280;76989;55.950;37.484;2024-03-23T08:18:39;97992.16;;;5.58;75.96
80137;BME280;76989;55.950;37.484;2024-03-23T08:21:09;97931.41;;;5.21;76.02
80137;BME280;76989;55.950;37.484;2024-03-23T08:23:36;97979.28;;;5.60;75.68
80137;BME280;76989;55.950;37.484;2024-03-23T08:26:06;97992.75;;;5.60;76.57
80137;BME280;76989;55.950;37.484;2024-03-23T08:28:34;97978.72;;;5.58;75.75
80137;BME280;76989;55.950;37.484;2024-03-23T08:31:07;97985.50;;;5.61;75.92
80137;BME280;76989;55.950;37.484;2024-03-23T08:33:34;97939.81;;;5.43;76.25
80137;BME280;76989;55.950;37.484;2024-03-23T08:36:02;97940.00;;;5.41;76.28
80137;BME280;76989;55.950;37.484;2024-03-23T08:38:31;97985.16;;;5.69;76.88
80137;BME280;76989;55.950;37.484;2024-03-23T08:41:08;97978.28;;;5.73;76.29
80137;BME280;76989;55.950;37.484;2024-03-23T08:43:38;97978.06;;;5.74;76.11
80137;BME280;76989;55.950;37.484;2024-03-23T08:46:09;97918.81;;;5.33;75.85
80137;BME280;76989;55.950;37.484;2024-03-23T08:48:38;97954.53;;;5.70;76.41
80137;BME280;76989;55.950;37.484;2024-03-23T08:51:06;97911.25;;;5.42;76.12
80137;BME280;76989;55.950;37.484;2024-03-23T08:53:34;97934.97;;;5.63;75.79
80137;BME280;76989;55.950;37.484;2024-03-23T08:56:02;97936.97;;;5.67;75.74
80137;BME280;76989;55.950;37.484;2024-03-23T08:58:30;97890.56;;;5.42;75.66
80137;BME280;76989;55.950;37.484;2024-03-23T09:01:02;97912.75;;;5.67;75.68
80137;BME280;76989;55.950;37.484;2024-03-23T09:03:30;97905.38;;;5.63;75.40
80137;BME280;76989;55.950;37.484;2024-03-23T09:05:59;97944.38;;;5.84;75.82
80137;BME280;76989;55.950;37.484;2024-03-23T09:08:25;97930.78;;;5.78;75.83
80137;BME280;76989;55.950;37.484;2024-03-23T09:10:56;97924.66;;;5.90;75.48
80137;BME280;76989;55.950;37.484;2024-03-23T09:13:22;97942.59;;;5.96;75.21
80137;BME280;76989;55.950;37.484;2024-03-23T09:15:50;97941.25;;;5.87;75.36
80137;BME280;76989;55.950;37.484;2024-03-23T09:18:17;97946.59;;;6.05;75.32
80137;BME280;76989;55.950;37.484;2024-03-23T09:20:44;97932.50;;;5.91;75.48
80137;BME280;76989;55.950;37.484;2024-03-23T09:23:13;97919.00;;;5.79;74.88
80137;BME280;76989;55.950;37.484;2024-03-23T09:25:41;97918.50;;;5.82;75.40
80137;BME280;76989;55.950;37.484;2024-03-23T09:28:10;97918.69;;;5.88;75.28
80137;BME280;76989;55.950;37.484;2024-03-23T09:30:36;97895.88;;;5.90;75.37
80137;BME280;76989;55.950;37.484;2024-03-23T09:33:10;97931.47;;;6.04;75.00
80137;BME280;76989;55.950;37.484;2024-03-23T09:35:41;97924.53;;;5.96;75.67
80137;BME280;76989;55.950;37.484;2024-03-23T09:38:09;97872.28;;;5.74;75.42
80137;BME280;76989;55.950;37.484;2024-03-23T09:40:41;97933.59;;;6.13;75.40
80137;BME280;76989;55.950;37.484;2024-03-23T09:43:09;97899.97;;;5.93;75.66
80137;BME280;76989;55.950;37.484;2024-03-23T09:45:40;97917.06;;;6.10;75.09
80137;BME280;76989;55.950;37.484;2024-03-23T09:48:08;97877.09;;;5.84;74.86
80137;BME280;76989;55.950;37.484;2024-03-23T09:50:45;97892.38;;;5.90;74.93
80137;BME280;76989;55.950;37.484;2024-03-23T09:53:20;97903.84;;;5.97;75.84
80137;BME280;76989;55.950;37.484;2024-03-23T09:55:49;97923.53;;;6.09;75.68
80137;BME280;76989;55.950;37.484;2024-03-23T09:58:17;97900.09;;;5.98;75.60
80137;BME280;76989;55.950;37.484;2024-03-23T10:00:44;97869.03;;;5.84;75.19
80137;BME280;76989;55.950;37.484;2024-03-23T10:03:12;97928.78;;;6.15;75.63
80137;BME280;76989;55.950;37.484;2024-03-23T10:05:39;97859.44;;;5.76;75.57
80137;BME280;76989;55.950;37.484;2024-03-23T10:08:18;97917.22;;;6.27;75.44
80137;BME280;76989;55.950;37.484;2024-03-23T10:10:46;97892.97;;;6.15;74.97
80137;BME280;76989;55.950;37.484;2024-03-23T10:13:27;97919.91;;;6.27;74.68
80137;BME280;76989;55.950;37.484;2024-03-23T10:15:57;97917.44;;;6.25;75.17
80137;BME280;76989;55.950;37.484;2024-03-23T10:18:29;97902.47;;;6.17;74.81
80137;BME280;76989;55.950;37.484;2024-03-23T10:21:08;97900.72;;;6.23;74.98
80137;BME280;76989;55.950;37.484;2024-03-23T10:23:41;97918.28;;;6.26;74.97
80137;BME280;76989;55.950;37.484;2024-03-23T10:26:23;97899.91;;;6.22;75.09
80137;BME280;76989;55.950;37.484;2024-03-23T10:28:58;97894.03;;;6.14;75.41
80137;BME280;76989;55.950;37.484;2024-03-23T10:31:30;97901.75;;;6.22;75.26
80137;BME280;76989;55.950;37.484;2024-03-23T10:33:57;97909.63;;;6.35;74.97
80137;BME280;76989;55.950;37.484;2024-03-23T10:36:26;97867.34;;;6.12;75.21
80137;BME280;76989;55.950;37.484;2024-03-23T10:38:55;97907.97;;;6.34;75.28
80137;BME280;76989;55.950;37.484;2024-03-23T10:41:30;97895.41;;;6.28;75.02
80137;BME280;76989;55.950;37.484;2024-03-23T10:43:58;97888.31;;;6.22;74.91
80137;BME280;76989;55.950;37.484;2024-03-23T10:46:25;97906.44;;;6.38;74.97
80137;BME280;76989;55.950;37.484;2024-03-23T10:48:51;97916.28;;;6.44;75.17
80137;BME280;76989;55.950;37.484;2024-03-23T10:51:20;97836.66;;;5.90;74.85
80137;BME280;76989;55.950;37.484;2024-03-23T10:53:51;97917.94;;;6.45;74.71
80137;BME280;76989;55.950;37.484;2024-03-23T10:56:24;97918.63;;;6.52;74.76
80137;BME280;76989;55.950;37.484;2024-03-23T10:58:52;97898.25;;;6.33;75.01
80137;BME280;76989;55.950;37.484;2024-03-23T11:01:19;97871.69;;;6.13;75.04
80137;BME280;76989;55.950;37.484;2024-03-23T11:03:47;97915.47;;;6.44;75.09
80137;BME280;76989;55.950;37.484;2024-03-23T11:09:01;97877.75;;;6.09;75.64
80137;BME280;76989;55.950;37.484;2024-03-23T11:11:29;97895.91;;;6.37;75.63
80137;BME280;76989;55.950;37.484;2024-03-23T11:13:59;97896.16;;;6.35;75.79
80137;BME280;76989;55.950;37.484;2024-03-23T11:16:27;97896.03;;;6.30;76.15
80137;BME280;76989;55.950;37.484;2024-03-23T11:19:34;97881.59;;;6.48;75.55
80137;BME280;76989;55.950;37.484;2024-03-23T11:22:02;97884.06;;;6.38;75.28
80137;BME280;76989;55.950;37.484;2024-03-23T11:24:32;97854.56;;;6.19;75.52
80137;BME280;76989;55.950;37.484;2024-03-23T11:26:59;97865.22;;;6.26;76.03
80137;BME280;76989;55.950;37.484;2024-03-23T11:29:27;97862.06;;;6.29;76.08
80137;BME280;76989;55.950;37.484;2024-03-23T11:31:55;97840.75;;;6.16;75.53
80137;BME280;76989;55.950;37.484;2024-03-23T11:34:22;97839.81;;;6.10;75.71
80137;BME280;76989;55.950;37.484;2024-03-23T11:36:50;97825.31;;;6.00;76.01
80137;BME280;76989;55.950;37.484;2024-03-23T11:39:19;97864.03;;;6.34;75.80
80137;BME280;76989;55.950;37.484;2024-03-23T11:41:51;97886.88;;;6.54;76.42
80137;BME280;76989;55.950;37.484;2024-03-23T11:44:20;97876.69;;;6.33;76.48
80137;BME280;76989;55.950;37.484;2024-03-23T11:46:46;97846.72;;;6.30;76.20
80137;BME280;76989;55.950;37.484;2024-03-23T11:49:27;97844.72;;;6.25;76.28
80137;BME280;76989;55.950;37.484;2024-03-23T11:51:55;97849.97;;;6.43;76.41
80137;BME280;76989;55.950;37.484;2024-03-23T11:54:23;97879.59;;;6.66;76.06
80137;BME280;76989;55.950;37.484;2024-03-23T11:57:01;97860.72;;;6.78;75.75
80137;BME280;76989;55.950;37.484;2024-03-23T12:02:00;97871.25;;;6.80;75.98
80137;BME280;76989;55.950;37.484;2024-03-23T12:04:31;97852.84;;;6.77;75.99
80137;BME280;76989;55.950;37.484;2024-03-23T12:07:17;97839.50;;;6.82;76.06
80137;BME280;76989;55.950;37.484;2024-03-23T12:10:05;97862.44;;;6.96;75.98
80137;BME280;76989;55.950;37.484;2024-03-23T12:12:34;97817.53;;;6.90;75.83
80137;BME280;76989;55.950;37.484;2024-03-23T12:15:08;97831.03;;;6.90;75.93
80137;BME280;76989;55.950;37.484;2024-03-23T12:17:35;97857.22;;;7.06;75.95
80137;BME280;76989;55.950;37.484;2024-03-23T12:20:05;97825.53;;;6.85;75.94
80137;BME280;76989;55.950;37.484;2024-03-23T12:22:34;97831.97;;;6.84;75.98
80137;BME280;76989;55.950;37.484;2024-03-23T12:25:01;97845.81;;;6.87;76.17
80137;BME280;76989;55.950;37.484;2024-03-23T12:27:29;97859.91;;;7.06;75.98
80137;BME280;76989;55.950;37.484;2024-03-23T12:29:56;97850.84;;;6.84;76.10
80137;BME280;76989;55.950;37.484;2024-03-23T12:32:23;97837.88;;;6.69;76.99
80137;BME280;76989;55.950;37.484;2024-03-23T12:34:52;97851.66;;;6.84;76.39
80137;BME280;76989;55.950;37.484;2024-03-23T12:37:19;97844.53;;;6.78;76.60
80137;BME280;76989;55.950;37.484;2024-03-23T12:39:47;97812.72;;;6.63;76.75
80137;BME280;76989;55.950;37.484;2024-03-23T12:42:19;97805.44;;;6.64;76.87
80137;BME280;76989;55.950;37.484;2024-03-23T12:44:48;97837.13;;;6.85;77.13
80137;BME280;76989;55.950;37.484;2024-03-23T12:47:16;97859.97;;;6.94;76.67
80137;BME280;76989;55.950;37.484;2024-03-23T12:49:42;97819.72;;;6.64;76.76
80137;BME280;76989;55.950;37.484;2024-03-23T12:52:11;97830.81;;;6.80;77.36
80137;BME280;76989;55.950;37.484;2024-03-23T12:54:38;97849.56;;;6.86;77.09
80137;BME280;76989;55.950;37.484;2024-03-23T12:57:06;97822.19;;;6.66;77.41
80137;BME280;76989;55.950;37.484;2024-03-23T12:59:33;97810.25;;;6.62;77.40
80137;BME280;76989;55.950;37.484;2024-03-23T13:02:05;97833.66;;;6.61;77.75
80137;BME280;76989;55.950;37.484;2024-03-23T13:04:33;97843.94;;;6.76;77.75
80137;BME280;76989;55.950;37.484;2024-03-23T13:07:02;97838.22;;;6.73;78.01
80137;BME280;76989;55.950;37.484;2024-03-23T13:09:29;97788.50;;;6.40;77.95
80137;BME280;76989;55.950;37.484;2024-03-23T13:11:59;97839.41;;;6.65;78.43
80137;BME280;76989;55.950;37.484;2024-03-23T13:14:27;97811.09;;;6.39;77.71
80137;BME280;76989;55.950;37.484;2024-03-23T13:16:53;97792.03;;;6.41;78.47
80137;BME280;76989;55.950;37.484;2024-03-23T13:19:20;97844.22;;;6.63;78.20
80137;BME280;76989;55.950;37.484;2024-03-23T13:21:46;97808.97;;;6.53;78.32
80137;BME280;76989;55.950;37.484;2024-03-23T13:24:13;97805.00;;;6.44;78.56
80137;BME280;76989;55.950;37.484;2024-03-23T13:26:39;97822.22;;;6.54;78.97
80137;BME280;76989;55.950;37.484;2024-03-23T13:29:06;97803.13;;;6.44;78.39
80137;BME280;76989;55.950;37.484;2024-03-23T13:31:32;97821.25;;;6.60;78.69
80137;BME280;76989;55.950;37.484;2024-03-23T13:34:00;97805.50;;;6.29;78.96
80137;BME280;76989;55.950;37.484;2024-03-23T13:36:27;97815.34;;;6.35;79.76
80137;BME280;76989;55.950;37.484;2024-03-23T13:38:54;97836.41;;;6.50;79.53
80137;BME280;76989;55.950;37.484;2024-03-23T13:41:24;97795.19;;;6.14;79.94
80137;BME280;76989;55.950;37.484;2024-03-23T13:43:50;97842.50;;;6.45;80.01
80137;BME280;76989;55.950;37.484;2024-03-23T13:46:16;97788.19;;;6.02;79.89
80137;BME280;76989;55.950;37.484;2024-03-23T13:48:43;97823.91;;;6.32;80.32
80137;BME280;76989;55.950;37.484;2024-03-23T13:51:10;97801.31;;;6.21;79.70
80137;BME280;76989;55.950;37.484;2024-03-23T13:53:39;97813.69;;;6.34;79.85
80137;BME280;76989;55.950;37.484;2024-03-23T13:56:06;97810.31;;;6.27;80.19
80137;BME280;76989;55.950;37.484;2024-03-23T13:58:32;97834.41;;;6.45;80.04
80137;BME280;76989;55.950;37.484;2024-03-23T14:01:00;97844.38;;;6.45;79.87
80137;BME280;76989;55.950;37.484;2024-03-23T14:03:28;97799.28;;;6.29;79.75
80137;BME280;76989;55.950;37.484;2024-03-23T14:05:59;97846.81;;;6.46;79.71